Latest Weather Observations for Casterton

IDV60801

Issued at 4:42 pm EDT Wednesday 21 November 2018 (issued every 10 minutes, with the page automatically refreshed every 10 minutes)

About weather observations | Map of weather stations | Latest weather observations for VIC | Other Formats
Station Details ID: 090182 Name: CASTERTON Lat: -37.58 Lon: 141.33 Height: 130.6 m
Data from the previous 72 hours. | See also: Recent months at Casterton
Date/Time
EDT
Temp
°C
App
Temp
°C
Dew
Point
°C
Rel
Hum
%
Delta-T
°C
Wind Press
QNH
hPa
Press
MSL
hPa
Rain since
9am
mm
Dir  Spd
km/h
Gust
km/h
Spd
kts
Gust
kts
21/04:30pm 9.3 6.6 8.8 97 0.2 NNW 13 20 7 11 - - 2.4
21/04:00pm 9.2 5.3 8.7 97 0.2 WNW 19 26 10 14 - - 1.8
21/03:30pm 10.2 4.5 9.7 97 0.3 WNW 30 43 16 23 - - 1.0
21/03:12pm 10.3 4.6 9.7 96 0.3 WNW 30 48 16 26 - - 0.6
21/03:00pm 10.3 4.1 9.5 95 0.4 NW 32 44 17 24 - - 0.4
21/02:37pm 13.1 6.5 8.4 73 2.4 N 33 61 18 33 - - 0.2
21/02:36pm 14.1 7.7 8.7 70 2.7 N 32 61 17 33 - - 0.2
21/02:30pm 14.8 8.6 7.8 63 3.5 N 30 46 16 25 - - 0.2
21/02:24pm 16.3 10.4 7.3 55 4.5 N 28 46 15 25 - - 0.2
21/02:00pm 16.7 13.1 9.9 64 3.6 NNE 19 30 10 16 - - 0.2
21/01:30pm 16.7 12.1 11.0 69 3.1 NNE 26 44 14 24 - - 0.2
21/01:00pm 15.3 11.4 10.7 74 2.4 NNE 22 41 12 22 - - 0.0
21/12:44pm 15.0 10.2 8.9 67 3.1 NNE 24 48 13 26 - - 0.0
21/12:30pm 15.1 13.8 12.4 84 1.5 NNW 11 17 6 9 - - 0.0
21/12:00pm 14.8 10.7 7.8 63 3.5 N 19 28 10 15 - - 0.0
21/11:30am 14.6 10.4 8.3 66 3.2 NNE 20 32 11 17 - - 0.0
21/11:00am 15.6 11.9 10.2 70 2.9 NNE 20 28 11 15 - - 0.0
21/10:30am 14.1 10.7 10.5 79 1.9 NNE 19 26 10 14 - - 0.0
21/10:00am 13.3 10.1 9.9 80 1.8 N 17 26 9 14 - - 0.0
21/09:30am 12.6 10.2 11.3 92 0.7 N 15 22 8 12 - - 0.0
21/09:00am 11.4 8.9 11.2 99 0.1 N 15 20 8 11 - - 3.4
21/08:30am 10.3 7.9 10.1 99 0.1 N 13 19 7 10 - - 3.4
21/08:00am 9.8 7.7 9.7 99 0.1 N 11 17 6 9 - - 3.4
21/07:30am 8.3 6.6 8.2 99 0.0 NE 7 9 4 5 - - 3.4
21/07:00am 6.2 4.2 6.1 99 0.0 NNE 6 9 3 5 - - 3.4
21/06:30am 6.1 3.9 6.0 99 0.0 NE 7 9 4 5 - - 3.4
21/06:00am 5.5 3.1 5.4 99 0.0 ENE 7 9 4 5 - - 3.4
21/05:30am 5.2 4.1 5.1 99 0.0 CALM 0 0 0 0 - - 3.4
21/05:00am 5.1 2.8 5.0 99 0.0 ENE 6 9 3 5 - - 3.4
21/04:30am 5.7 3.6 5.6 99 0.0 N 6 7 3 4 - - 3.4
21/04:00am 5.0 3.9 4.9 99 0.0 CALM 0 0 0 0 - - 3.4
21/03:30am 5.8 4.4 5.7 99 0.0 NW 2 6 1 3 - - 3.4
21/03:00am 5.5 4.5 5.4 99 0.0 CALM 0 0 0 0 - - 3.4
21/02:30am 5.9 4.2 5.8 99 0.0 NNW 4 7 2 4 - - 3.4
21/02:00am 6.1 3.5 6.0 99 0.0 WNW 9 11 5 6 - - 3.4
21/01:30am 6.2 4.2 6.1 99 0.0 WNW 6 7 3 4 - - 3.4
21/01:00am 6.4 4.2 6.3 99 0.0 NW 7 9 4 5 - - 3.4
21/12:30am 7.2 5.4 7.1 99 0.0 NW 6 7 3 4 - - 3.4
21/12:00am 7.6 5.9 7.5 99 0.0 NW 6 6 3 3 - - 3.4
 
Date/Time
EDT
Temp
°C
App
Temp
°C
Dew
Point
°C
Rel
Hum
%
Delta-T
°C
Wind Press
QNH
hPa
Press
MSL
hPa
Rain since
9am
mm
Dir  Spd
km/h
Gust
km/h
Spd
kts
Gust
kts
20/11:30pm 7.6 5.9 7.5 99 0.0 NW 6 7 3 4 - - 3.4
20/11:00pm 7.5 6.9 7.4 99 0.0 CALM 0 0 0 0 - - 3.4
20/10:30pm 8.8 8.5 8.7 99 0.0 CALM 0 0 0 0 - - 3.4
20/10:00pm 10.5 10.6 10.3 99 0.1 CALM 0 0 0 0 - - 3.4
20/09:30pm 11.1 10.1 10.9 99 0.1 WSW 7 9 4 5 - - 3.4
20/09:00pm 11.5 10.6 11.3 99 0.1 SW 7 9 4 5 - - 3.4
20/08:30pm 11.5 9.4 11.3 99 0.1 WSW 13 17 7 9 - - 3.4
20/08:00pm 11.6 9.2 11.4 99 0.1 SW 15 20 8 11 - - 3.4
20/07:30pm 11.9 10.0 11.7 99 0.1 SW 13 20 7 11 - - 3.2
20/07:00pm 12.2 10.0 12.0 99 0.1 SW 15 22 8 12 - - 3.2
20/06:30pm 12.1 9.1 11.9 99 0.1 SW 19 26 10 14 - - 3.2
20/06:00pm 12.2 9.2 12.0 99 0.1 WSW 19 28 10 15 - - 3.0
20/05:30pm 13.1 10.8 12.9 99 0.1 SW 17 22 9 12 - - 2.8
20/05:00pm 13.6 11.4 13.4 99 0.1 SW 17 22 9 12 - - 2.8
20/04:30pm 14.6 13.5 14.3 98 0.2 SW 13 20 7 11 - - 2.4
20/04:00pm 15.1 14.4 14.3 95 0.5 WSW 11 13 6 7 - - 1.6
20/03:30pm 15.7 15.5 14.6 93 0.6 WSW 9 13 5 7 - - 0.6
20/03:00pm 16.0 15.8 14.7 92 0.7 SW 9 11 5 6 - - 0.2
20/02:30pm 16.1 16.1 14.3 89 1.0 NW 7 11 4 6 - - 0.0
20/02:00pm 16.7 16.4 14.5 87 1.3 W 9 13 5 7 - - 0.0
20/01:30pm 16.3 16.5 14.3 88 1.1 SSW 6 11 3 6 - - 0.0
20/01:00pm 16.4 16.6 14.2 87 1.3 S 6 11 3 6 - - 0.0
20/12:30pm 16.0 15.6 14.2 89 1.0 SSW 9 11 5 6 - - 0.0
20/12:00pm 16.1 16.1 14.1 88 1.1 WSW 7 11 4 6 - - 0.0
20/11:30am 15.8 15.1 14.3 91 0.9 NW 11 17 6 9 - - 0.0
20/11:00am 15.3 14.6 14.2 93 0.6 WSW 11 20 6 11 - - 0.0
20/10:30am 15.2 14.4 14.1 93 0.6 WNW 11 15 6 8 - - 0.0
20/10:00am 14.9 14.0 13.8 93 0.6 WSW 11 20 6 11 - - 0.0
20/09:30am 15.4 14.3 14.4 94 0.6 SSW 13 17 7 9 - - 0.0
20/09:00am 15.4 15.1 14.4 94 0.6 WNW 9 13 5 7 - - 0.0
20/08:30am 15.2 14.8 14.2 94 0.6 WNW 9 17 5 9 - - 0.0
20/08:00am 15.0 15.2 14.2 95 0.5 SSW 6 11 3 6 - - 0.0
20/07:30am 15.1 15.5 13.8 92 0.7 WSW 4 13 2 7 - - 0.0
20/07:00am 15.1 14.5 13.5 90 0.9 WNW 9 13 5 7 - - 0.0
20/06:30am 15.3 14.2 13.2 87 1.2 W 11 20 6 11 - - 0.0
20/06:00am 15.9 12.9 12.5 80 1.9 W 20 26 11 14 - - 0.0
20/05:30am 16.9 13.6 11.0 68 3.2 W 19 26 10 14 - - 0.0
20/05:00am 18.1 13.4 10.5 61 4.1 WNW 26 37 14 20 - - 0.0
20/04:30am 19.7 15.6 8.7 49 5.8 NW 20 30 11 16 - - 0.0
20/04:00am 20.5 16.8 7.8 44 6.6 NNW 17 26 9 14 - - 0.0
20/03:30am 19.4 16.6 8.4 49 5.7 NNW 13 19 7 10 - - 0.0
20/03:00am 19.1 18.8 10.1 56 4.8 NNW 2 7 1 4 - - 0.0
20/02:30am 20.5 18.9 7.8 44 6.6 N 6 9 3 5 - - 0.0
20/02:00am 20.7 18.2 8.0 44 6.6 N 11 13 6 7 - - 0.0
20/01:30am 23.9 19.8 6.2 32 9.1 NNW 17 26 9 14 - - 0.0
20/01:00am 23.7 19.0 5.1 30 9.4 NNW 19 30 10 16 - - 0.0
20/12:30am 24.0 18.1 3.9 27 9.9 N 24 35 13 19 - - 0.0
20/12:00am 22.2 18.2 4.7 32 8.7 N 15 22 8 12 - - 0.0
 
Date/Time
EDT
Temp
°C
App
Temp
°C
Dew
Point
°C
Rel
Hum
%
Delta-T
°C
Wind Press
QNH
hPa
Press
MSL
hPa
Rain since
9am
mm
Dir  Spd
km/h
Gust
km/h
Spd
kts
Gust
kts
19/11:30pm 21.2 18.0 6.7 39 7.4 NE 13 15 7 8 - - 0.0
19/11:00pm 21.8 19.2 7.6 40 7.4 NE 11 15 6 8 - - 0.0
19/10:30pm 21.3 19.0 8.9 45 6.6 NE 11 13 6 7 - - 0.0
19/10:00pm 20.7 18.5 9.3 48 6.1 NE 11 13 6 7 - - 0.0
19/09:30pm 20.7 18.9 9.6 49 6.0 NE 9 11 5 6 - - 0.0
19/09:00pm 21.1 19.6 10.6 51 5.8 NE 9 13 5 7 - - 0.0
19/08:30pm 23.1 21.4 9.8 43 7.3 NE 9 11 5 6 - - 0.0
19/08:00pm 24.0 23.3 11.3 45 7.2 ENE 6 9 3 5 - - 0.0
19/07:30pm 24.0 23.2 12.9 50 6.4 ENE 9 15 5 8 - - 0.0
19/07:00pm 25.5 24.9 12.4 44 7.6 ENE 7 9 4 5 - - 0.0
19/06:30pm 26.8 26.0 10.9 37 9.0 ENE 6 7 3 4 - - 0.0
19/06:00pm 27.3 31.1 20.9 68 4.3 ENE 2 7 1 4 - - 0.0
19/05:30pm 27.3 31.0 19.9 64 4.8 CALM 0 0 0 0 - - 0.0
19/05:00pm 27.7 29.8 19.0 59 5.6 NE 6 7 3 4 - - 0.0
19/04:30pm 27.6 26.0 10.3 34 9.8 N 9 13 5 7 - - 0.0
19/04:00pm 28.7 26.2 8.4 28 11.2 N 11 17 6 9 - - 0.0
19/03:30pm 28.9 26.2 9.1 29 11.0 N 13 19 7 10 - - 0.0
19/03:00pm 29.4 26.6 8.5 27 11.6 N 13 24 7 13 - - 0.0
19/02:30pm 29.3 24.7 6.7 24 12.1 N 20 32 11 17 - - 0.0
19/02:00pm 29.5 25.1 7.4 25 12.0 N 20 32 11 17 - - 0.0
19/01:30pm 30.1 25.2 6.7 23 12.6 N 22 33 12 18 - - 0.0
19/01:00pm 30.1 24.9 5.4 21 13.0 N 22 35 12 19 - - 0.0
19/12:30pm 29.1 25.3 11.2 33 10.3 N 22 32 12 17 - - 0.0
19/12:00pm 27.4 23.2 9.7 33 9.9 NNE 22 37 12 20 - - 0.0
19/11:30am 27.0 21.6 9.4 33 9.8 NNE 28 43 15 23 - - 0.0
19/11:00am 26.3 20.3 8.8 33 9.6 NNE 30 43 16 23 - - 0.0
19/10:36am 26.2 20.1 8.2 32 9.7 NNE 30 48 16 26 - - 0.0
19/10:30am 25.8 19.3 8.3 33 9.5 NE 32 48 17 26 - - 0.0
19/10:26am 25.6 19.5 8.1 33 9.4 NNE 30 48 16 26 - - 0.0
19/10:00am 24.4 17.9 8.0 35 8.8 NNE 32 43 17 23 - - 0.0
19/09:30am 23.7 17.6 8.2 37 8.3 NNE 30 52 16 28 - - 0.0
19/09:21am 23.1 16.3 6.8 35 8.4 NNE 32 52 17 28 - - 0.0
19/09:00am 22.5 17.4 7.5 38 7.8 NNE 24 41 13 22 - - 0.0
19/08:30am 21.1 16.5 8.0 43 6.9 NNE 22 33 12 18 - - 0.0
19/08:00am 20.3 14.5 6.3 40 7.1 NNE 26 35 14 19 - - 0.0
19/07:30am 19.2 14.5 6.0 42 6.6 NNE 20 33 11 18 - - 0.0
19/07:00am 17.5 13.4 6.1 47 5.6 NNE 17 24 9 13 - - 0.0
19/06:30am 17.3 12.8 5.9 47 5.6 NNE 19 28 10 15 - - 0.0
19/06:00am 18.2 13.6 5.4 43 6.3 NNE 19 24 10 13 - - 0.0
19/05:30am 18.1 13.6 6.0 45 6.0 NNE 19 28 10 15 - - 0.0
19/05:00am 17.8 13.7 6.0 46 5.8 NNE 17 26 9 14 - - 0.0
19/04:30am 18.4 14.3 6.3 45 6.0 NNE 17 26 9 14 - - 0.0
19/04:00am 17.8 14.3 7.0 49 5.4 NNE 15 24 8 13 - - 0.0
19/03:30am 17.3 13.9 7.6 53 4.9 NE 15 20 8 11 - - 0.0
19/03:00am 16.9 14.3 9.3 61 4.0 NNE 13 17 7 9 - - 0.0
19/02:30am 14.6 13.2 10.8 78 2.0 NE 9 11 5 6 - - 0.0
19/02:00am 14.3 12.5 10.9 80 1.8 NE 11 13 6 7 - - 0.0
19/01:30am 14.4 13.2 11.6 83 1.5 ENE 9 11 5 6 - - 0.0
19/01:00am 14.5 13.3 11.5 82 1.6 ENE 9 11 5 6 - - 0.0
19/12:30am 15.4 14.4 12.3 82 1.7 ENE 9 13 5 7 - - 0.0
19/12:00am 15.6 14.6 12.4 81 1.8 ENE 9 13 5 7 - - 0.0
 
Date/Time
EDT
Temp
°C
App
Temp
°C
Dew
Point
°C
Rel
Hum
%
Delta-T
°C
Wind Press
QNH
hPa
Press
MSL
hPa
Rain since
9am
mm
Dir  Spd
km/h
Gust
km/h
Spd
kts
Gust
kts
18/11:30pm 16.4 15.9 12.2 76 2.3 ENE 6 7 3 4 - - 0.0
18/11:00pm 16.6 15.5 12.0 74 2.5 E 9 11 5 6 - - 0.0
18/10:30pm 17.1 16.1 12.2 73 2.7 E 9 11 5 6 - - 0.0
18/10:00pm 18.1 17.6 12.5 70 3.1 E 7 9 4 5 - - 0.0
18/09:30pm 17.4 16.3 10.8 65 3.6 W 7 9 4 5 - - 0.0
18/09:00pm 17.8 17.3 10.7 63 3.8 E 4 13 2 7 - - 0.0
18/08:30pm 22.2 22.1 9.4 44 6.9 CALM 0 6 0 3 - - 0.0
18/08:00pm 23.0 21.8 10.4 45 7.0 ENE 7 9 4 5 - - 0.0
18/07:30pm 24.5 22.6 10.4 41 7.9 ENE 11 17 6 9 - - 0.0
18/07:00pm 26.0 24.6 11.0 39 8.5 ENE 9 13 5 7 - - 0.0
18/06:30pm 26.5 23.9 9.4 34 9.5 NE 13 19 7 10 - - 0.0
18/06:00pm 26.4 24.1 10.5 37 9.0 NE 13 20 7 11 - - 0.0
18/05:30pm 26.8 24.1 10.5 36 9.2 ENE 15 20 8 11 - - 0.0
18/05:00pm 27.3 25.3 10.1 34 9.7 NE 11 20 6 11 - - 0.0

Other Formats:

Comma delimited format used in spreadsheet applications
http://www.bom.gov.au/fwo/IDV60801/IDV60801.95825.axf

JavaScript Object Notation format (JSON) in row-major order
http://www.bom.gov.au/fwo/IDV60801/IDV60801.95825.json